Time,TemperatureF,DewpointF,PressureIn,WindDirection,WindDirectionDegrees,WindSpeedMPH,WindSpeedGustMPH,Humidity,HourlyPrecipIn,Conditions,Clouds,dailyrainin,SoftwareType,DateUTC
2013-06-16 00:06:00,53.2,43.3,29.83,South,169,0.0,0.0,69,0.00,,,0.00,Wunderground v.1.15,2013-06-16 04:06:00,
2013-06-16 00:26:00,52.3,43.5,29.83,South,169,1.0,1.0,72,0.00,,,0.00,Wunderground v.1.15,2013-06-16 04:26:00,
2013-06-16 01:06:00,51.7,43.0,29.83,South,169,1.0,2.0,72,0.00,,,0.00,Wunderground v.1.15,2013-06-16 05:06:00,
2013-06-16 01:16:00,51.4,43.0,29.82,South,169,1.0,1.0,73,0.00,,,0.00,Wunderground v.1.15,2013-06-16 05:16:00,
2013-06-16 01:26:00,51.4,43.0,29.82,South,169,0.0,0.0,73,0.00,,,0.00,Wunderground v.1.15,2013-06-16 05:26:00,
2013-06-16 01:36:00,51.3,43.3,29.83,South,169,0.0,0.0,74,0.00,,,0.00,Wunderground v.1.15,2013-06-16 05:36:00,
2013-06-16 01:56:00,51.1,43.1,29.82,South,169,0.0,1.0,74,0.00,,,0.00,Wunderground v.1.15,2013-06-16 05:56:00,
2013-06-16 02:36:00,51.9,43.2,29.83,SSW,196,2.0,2.0,72,0.00,,,0.00,Wunderground v.1.15,2013-06-16 06:36:00,
2013-06-16 02:46:00,53.1,43.2,29.83,SW,219,1.0,2.0,69,0.00,,,0.00,Wunderground v.1.15,2013-06-16 06:46:00,
2013-06-16 02:56:00,52.8,43.7,29.83,SW,219,0.0,0.0,71,0.00,,,0.00,Wunderground v.1.15,2013-06-16 06:56:00,
2013-06-16 03:16:00,51.9,43.2,29.82,SW,219,0.0,0.0,72,0.00,,,0.00,Wunderground v.1.15,2013-06-16 07:16:00,
2013-06-16 03:26:00,52.0,43.3,29.82,WNW,286,1.0,4.0,72,0.00,,,0.00,Wunderground v.1.15,2013-06-16 07:26:00,
2013-06-16 03:35:00,52.3,43.2,29.82,WNW,284,1.0,4.0,71,0.00,,,0.00,Wunderground v.1.15,2013-06-16 07:35:00,
2013-06-16 03:46:00,51.9,43.5,29.82,WNW,284,0.0,0.0,73,0.00,,,0.00,Wunderground v.1.15,2013-06-16 07:46:00,
2013-06-16 03:56:00,51.9,43.2,29.82,WNW,284,0.0,0.0,72,0.00,,,0.00,Wunderground v.1.15,2013-06-16 07:56:00,
2013-06-16 04:36:00,53.1,43.6,29.82,WNW,284,0.0,0.0,70,0.00,,,0.00,Wunderground v.1.15,2013-06-16 08:36:00,
2013-06-16 04:46:00,52.8,43.7,29.81,WNW,284,0.0,0.0,71,0.00,,,0.00,Wunderground v.1.15,2013-06-16 08:46:00,
2013-06-16 04:56:00,52.3,43.5,29.81,WNW,284,0.0,0.0,72,0.00,,,0.00,Wunderground v.1.15,2013-06-16 08:56:00,
2013-06-16 05:15:00,52.2,44.2,29.82,WNW,284,0.0,0.0,74,0.00,,,0.00,Wunderground v.1.15,2013-06-16 09:15:00,
2013-06-16 05:26:00,51.9,44.2,29.82,WNW,284,0.0,0.0,75,0.00,,,0.00,Wunderground v.1.15,2013-06-16 09:26:00,
2013-06-16 05:46:00,53.2,44.0,29.82,WNW,284,0.0,0.0,71,0.00,,,0.00,Wunderground v.1.15,2013-06-16 09:46:00,
2013-06-16 06:05:00,53.1,45.7,29.82,WNW,284,0.0,0.0,76,0.00,,,0.00,Wunderground v.1.15,2013-06-16 10:05:00,
2013-06-16 06:36:00,56.7,45.9,29.81,NNE,14,0.0,0.0,67,0.00,,,0.00,Wunderground v.1.15,2013-06-16 10:36:00,
2013-06-16 07:06:00,59.2,48.6,29.81,ESE,103,0.0,0.0,68,0.00,,,0.00,Wunderground v.1.15,2013-06-16 11:06:00,
2013-06-16 08:26:00,63.7,50.4,29.81,SE,133,1.0,1.0,62,0.00,,,0.00,Wunderground v.1.15,2013-06-16 12:26:00,
2013-06-16 08:56:00,64.8,51.0,29.80,SE,134,0.0,0.0,61,0.00,,,0.00,Wunderground v.1.15,2013-06-16 12:56:00,
2013-06-16 09:16:00,65.3,51.9,29.80,SE,134,0.0,1.0,62,0.00,,,0.00,Wunderground v.1.15,2013-06-16 13:16:00,
2013-06-16 09:25:00,66.4,49.7,29.80,SE,134,0.0,1.0,55,0.00,,,0.00,Wunderground v.1.15,2013-06-16 13:25:00,
2013-06-16 09:36:00,65.5,49.9,29.79,SE,142,2.0,2.0,57,0.00,,,0.00,Wunderground v.1.15,2013-06-16 13:36:00,
2013-06-16 09:46:00,64.8,50.1,29.78,SE,140,3.0,3.0,59,0.00,,,0.00,Wunderground v.1.15,2013-06-16 13:46:00,
2013-06-16 09:56:00,65.5,50.8,29.78,SE,137,2.0,4.0,59,0.00,,,0.00,Wunderground v.1.15,2013-06-16 13:56:00,
2013-06-16 10:26:00,64.5,51.2,29.78,ESE,118,4.0,4.0,62,0.00,,,0.00,Wunderground v.1.15,2013-06-16 14:26:00,
2013-06-16 11:06:00,64.7,52.7,29.76,ESE,121,4.0,4.0,65,0.00,,,0.00,Wunderground v.1.15,2013-06-16 15:06:00,
2013-06-16 11:36:00,67.9,54.4,29.75,SE,146,4.0,4.0,62,0.00,,,0.00,Wunderground v.1.15,2013-06-16 15:36:00,
2013-06-16 11:46:00,68.1,52.8,29.74,SE,134,4.0,4.0,58,0.00,,,0.00,Wunderground v.1.15,2013-06-16 15:46:00,
2013-06-16 11:56:00,68.4,52.6,29.74,SE,133,6.0,9.0,57,0.00,,,0.00,Wunderground v.1.15,2013-06-16 15:56:00,
2013-06-16 12:35:00,70.1,53.2,29.72,SSE,149,1.0,1.0,55,0.00,,,0.00,Wunderground v.1.15,2013-06-16 16:35:00,
2013-06-16 13:06:00,73.9,48.7,29.71,South,187,0.0,0.0,41,0.00,,,0.00,Wunderground v.1.15,2013-06-16 17:06:00,
2013-06-16 13:16:00,75.3,49.3,29.70,North,5,1.0,1.0,40,0.00,,,0.00,Wunderground v.1.15,2013-06-16 17:16:00,
2013-06-16 13:26:00,76.1,50.0,29.70,South,170,2.0,3.0,40,0.00,,,0.00,Wunderground v.1.15,2013-06-16 17:26:00,
2013-06-16 13:46:00,77.0,48.7,29.68,SSW,204,1.0,1.0,37,0.00,,,0.00,Wunderground v.1.15,2013-06-16 17:46:00,
2013-06-16 14:36:00,71.8,51.6,29.66,SSW,205,2.0,2.0,49,0.00,,,0.00,Wunderground v.1.15,2013-06-16 18:36:00,
2013-06-16 14:46:00,72.1,51.9,29.66,SSE,159,2.0,2.0,49,0.00,,,0.00,Wunderground v.1.15,2013-06-16 18:46:00,
2013-06-16 14:56:00,72.7,51.9,29.66,SSE,159,2.0,2.0,48,0.00,,,0.00,Wunderground v.1.15,2013-06-16 18:56:00,
2013-06-16 15:06:00,72.5,55.4,29.65,SW,229,1.0,1.0,55,0.00,,,0.00,Wunderground v.1.15,2013-06-16 19:06:00,
2013-06-16 15:16:00,71.8,53.7,29.65,South,185,1.0,2.0,53,0.00,,,0.00,Wunderground v.1.15,2013-06-16 19:16:00,
2013-06-16 15:26:00,70.6,52.6,29.65,West,273,1.0,1.0,53,0.00,,,0.00,Wunderground v.1.15,2013-06-16 19:26:00,
2013-06-16 16:36:00,66.6,55.7,29.66,NW,326,0.0,0.0,68,0.00,,,0.00,Wunderground v.1.15,2013-06-16 20:36:00,
2013-06-16 16:46:00,65.3,57.5,29.66,West,267,1.0,1.0,76,0.00,,,0.00,Wunderground v.1.15,2013-06-16 20:46:00,
2013-06-16 17:26:00,60.5,58.5,29.67,WNW,292,0.0,0.0,93,0.10,,,0.10,Wunderground v.1.15,2013-06-16 21:26:00,
2013-06-16 18:06:00,60.9,58.9,29.65,WNW,292,0.0,0.0,93,0.00,,,0.10,Wunderground v.1.15,2013-06-16 22:06:00,
2013-06-16 18:15:00,60.5,58.5,29.65,WNW,292,0.0,0.0,93,0.00,,,0.10,Wunderground v.1.15,2013-06-16 22:15:00,
2013-06-16 18:26:00,60.5,58.8,29.65,WNW,292,0.0,0.0,94,0.00,,,0.10,Wunderground v.1.15,2013-06-16 22:26:00,
2013-06-16 18:36:00,60.5,58.8,29.65,WNW,292,0.0,1.0,94,0.00,,,0.10,Wunderground v.1.15,2013-06-16 22:36:00,
2013-06-16 18:45:00,60.4,58.7,29.64,WNW,294,1.0,1.0,94,0.00,,,0.10,Wunderground v.1.15,2013-06-16 22:45:00,
2013-06-16 19:06:00,60.1,58.1,29.64,WNW,294,0.0,0.0,93,0.00,,,0.11,Wunderground v.1.15,2013-06-16 23:06:00,
2013-06-16 19:16:00,59.9,57.9,29.64,WNW,294,0.0,0.0,93,0.00,,,0.11,Wunderground v.1.15,2013-06-16 23:16:00,
2013-06-16 19:26:00,59.9,57.9,29.64,WNW,294,0.0,0.0,93,0.00,,,0.11,Wunderground v.1.15,2013-06-16 23:26:00,
2013-06-16 19:36:00,59.5,57.5,29.64,WNW,294,0.0,0.0,93,0.00,,,0.11,Wunderground v.1.15,2013-06-16 23:36:00,
2013-06-16 20:06:00,59.0,57.3,29.63,WNW,294,0.0,0.0,94,0.00,,,0.11,Wunderground v.1.15,2013-06-17 00:06:00,
2013-06-16 20:16:00,58.9,57.2,29.63,WNW,294,0.0,0.0,94,0.00,,,0.11,Wunderground v.1.15,2013-06-17 00:16:00,
2013-06-16 20:26:00,58.9,57.5,29.63,WNW,294,0.0,0.0,95,0.00,,,0.11,Wunderground v.1.15,2013-06-17 00:26:00,
2013-06-16 20:36:00,59.0,57.6,29.63,WNW,294,1.0,1.0,95,0.00,,,0.12,Wunderground v.1.15,2013-06-17 00:36:00,
2013-06-16 20:46:00,58.6,57.5,29.62,SE,132,2.0,3.0,96,0.00,,,0.12,Wunderground v.1.15,2013-06-17 00:46:00,
2013-06-16 21:05:00,58.1,57.0,29.63,SE,139,2.0,3.0,96,0.00,,,0.12,Wunderground v.1.15,2013-06-17 01:05:00,
2013-06-16 21:36:00,57.8,57.0,29.64,SE,139,0.0,0.0,97,0.00,,,0.12,Wunderground v.1.15,2013-06-17 01:36:00,
2013-06-16 22:16:00,57.5,56.7,29.64,SE,139,1.0,1.0,97,0.00,,,0.12,Wunderground v.1.15,2013-06-17 02:16:00,
2013-06-16 22:25:00,57.6,56.8,29.64,SE,139,0.0,0.0,97,0.00,,,0.12,Wunderground v.1.15,2013-06-17 02:25:00,
2013-06-16 22:46:00,57.8,57.2,29.64,SE,139,0.0,0.0,98,0.00,,,0.12,Wunderground v.1.15,2013-06-17 02:46:00,
2013-06-16 22:56:00,58.0,57.4,29.64,NNW,348,1.0,1.0,98,0.00,,,0.12,Wunderground v.1.15,2013-06-17 02:56:00,
2013-06-16 23:26:00,60.1,57.2,29.64,West,275,3.0,3.0,90,0.00,,,0.12,Wunderground v.1.15,2013-06-17 03:26:00,
2013-06-16 23:36:00,60.2,56.6,29.64,North,360,1.0,3.0,88,0.00,,,0.12,Wunderground v.1.15,2013-06-17 03:36:00,
2013-06-16 23:46:00,60.4,56.8,29.64,NW,323,1.0,2.0,88,0.00,,,0.12,Wunderground v.1.15,2013-06-17 03:46:00,
2013-06-16 23:56:00,59.2,56.9,29.64,NW,304,1.0,3.0,92,0.00,,,0.12,Wunderground v.1.15,2013-06-17 03:56:00,